Time;durP1;ratioP1;P1;durP2;ratioP2;P2;SDS_P1;SDS_P2;PMS_P1;PMS_P2;Temp;Humidity;BMP_temperature;BMP_pressure;BME280_temperature;BME280_humidity;BME280_pressure;Samples;Min_cycle;Max_cycle;Signal;HPM_P1;HPM_P2
2022/06/10 00:00:50;;;;;;;;;5.75;3.25;;;;;20.29;44.92;101653.00;4941833;28;47863;-49
2022/06/10 00:03:18;;;;;;;;;7.00;6.00;;;;;20.33;44.84;101667.09;4943592;28;45334;-48
2022/06/10 00:05:47;;;;;;;;;6.25;5.25;;;;;20.27;44.88;101651.34;4944127;28;45382;-50
2022/06/10 00:08:16;;;;;;;;;6.00;6.00;;;;;20.28;44.59;101664.59;4943344;28;45222;-53
2022/06/10 00:10:45;;;;;;;;;7.50;4.00;;;;;20.26;44.62;101661.16;4943601;28;46244;-52
2022/06/10 00:13:11;;;;;;;;;4.25;4.25;;;;;20.20;44.94;101661.41;4943398;28;45277;-50
2022/06/10 00:15:36;;;;;;;;;6.25;5.75;;;;;20.21;44.66;101660.44;4943652;28;45332;-50
2022/06/10 00:18:02;;;;;;;;;8.50;6.00;;;;;20.17;44.97;101660.66;4943643;28;45233;-49
2022/06/10 00:20:30;;;;;;;;;6.00;5.00;;;;;20.15;44.80;101668.72;4943498;28;46191;-49
2022/06/10 00:22:55;;;;;;;;;4.25;4.25;;;;;20.09;45.25;101659.16;4943284;28;45335;-50
2022/06/10 00:25:22;;;;;;;;;7.75;7.75;;;;;20.09;45.43;101664.47;4943603;28;45248;-51
2022/06/10 00:27:49;;;;;;;;;8.75;6.00;;;;;20.07;44.85;101661.00;4943491;28;45408;-52
2022/06/10 00:30:16;;;;;;;;;8.00;5.25;;;;;20.04;44.90;101657.59;4943153;28;46327;-52
2022/06/10 00:32:42;;;;;;;;;7.75;7.50;;;;;20.00;45.59;101659.53;4943114;28;45269;-55
2022/06/10 00:35:08;;;;;;;;;8.25;6.00;;;;;19.97;45.07;101656.97;4942298;28;45305;-51
2022/06/10 00:37:34;;;;;;;;;6.75;5.00;;;;;19.93;45.08;101661.53;4943156;28;45477;-47
2022/06/10 00:39:59;;;;;;;;;5.00;4.50;;;;;19.91;45.67;101657.19;4943087;28;46090;-48
2022/06/10 00:42:25;;;;;;;;;9.75;5.75;;;;;19.89;45.36;101659.94;4942234;28;47686;-49
2022/06/10 00:44:53;;;;;;;;;5.00;4.75;;;;;19.88;45.20;101668.00;4943482;28;45236;-49
2022/06/10 00:47:38;;;;;;;;;7.00;6.00;;;;;19.83;45.26;101660.16;4942907;28;45483;-53
2022/06/10 00:50:20;;;;;;;;;5.75;4.00;;;;;19.81;45.64;101657.53;4942702;28;46409;-51
2022/06/10 00:53:07;;;;;;;;;5.50;5.50;;;;;19.78;45.58;101662.09;4942864;28;45271;-49
2022/06/10 00:55:36;;;;;;;;;5.00;5.00;;;;;19.75;45.83;101663.09;4942914;28;45329;-51
2022/06/10 00:58:12;;;;;;;;;9.50;6.00;;;;;19.74;45.49;101658.69;4942800;28;45390;-52
2022/06/10 01:00:38;;;;;;;;;6.75;5.00;;;;;19.71;46.12;101653.47;4942481;28;45276;-51
2022/06/10 01:03:04;;;;;;;;;5.00;5.00;;;;;19.69;45.60;101660.66;4942949;28;45311;-52
2022/06/10 01:05:30;;;;;;;;;3.25;3.25;;;;;19.67;46.03;101651.84;4942896;28;45563;-52
2022/06/10 01:08:01;;;;;;;;;6.25;5.00;;;;;19.63;45.80;101650.22;4942490;28;45228;-51
2022/06/10 01:10:31;;;;;;;;;5.00;5.00;;;;;19.59;46.13;101645.94;4942565;28;45529;-48
2022/06/10 01:13:26;;;;;;;;;4.50;4.50;;;;;19.55;46.10;101644.34;4942841;28;45507;-53
2022/06/10 01:16:04;;;;;;;;;7.50;7.25;;;;;19.53;45.73;101647.03;4941368;28;45369;-51
2022/06/10 01:18:48;;;;;;;;;7.50;5.50;;;;;19.51;46.27;101634.69;4942583;28;45351;-48
2022/06/10 01:21:26;;;;;;;;;5.75;5.75;;;;;19.48;46.17;101643.66;4942371;28;46284;-51
2022/06/10 01:24:00;;;;;;;;;7.25;6.00;;;;;19.46;46.26;101645.53;4942331;28;45399;-52
2022/06/10 01:29:37;;;;;;;;;4.75;4.75;;;;;19.41;46.32;101644.84;4942456;28;45177;-50
2022/06/10 01:32:06;;;;;;;;;9.00;6.00;;;;;19.38;46.75;101648.47;4941906;28;45422;-52
2022/06/10 01:35:16;;;;;;;;;8.00;6.50;;;;;19.37;46.71;101651.19;4942357;28;45412;-52
2022/06/10 01:37:51;;;;;;;;;6.25;4.00;;;;;19.34;46.61;101646.84;4919754;28;45604;-52
2022/06/10 01:40:31;;;;;;;;;6.00;6.00;;;;;19.32;46.59;101646.91;4942164;28;45244;-47
2022/06/10 01:43:22;;;;;;;;;5.50;4.00;;;;;19.29;46.78;101632.81;4942329;28;45377;-49
2022/06/10 01:45:56;;;;;;;;;6.50;5.25;;;;;19.26;46.72;101649.78;4942250;28;45348;-50
2022/06/10 01:48:27;;;;;;;;;6.75;6.00;;;;;19.23;46.55;101649.94;4942327;28;45181;-48
2022/06/10 01:51:12;;;;;;;;;4.50;4.50;;;;;19.19;46.86;101647.41;4941224;28;45248;-50
2022/06/10 01:53:44;;;;;;;;;5.00;5.00;;;;;19.16;46.82;101651.91;4939549;28;46056;-50
2022/06/10 01:56:21;;;;;;;;;6.25;5.75;;;;;19.12;46.78;101647.63;4942032;28;45355;-53
2022/06/10 01:59:10;;;;;;;;;4.25;4.25;;;;;19.10;47.17;101654.81;4940848;28;45374;-52
2022/06/10 02:01:40;;;;;;;;;6.00;4.50;;;;;19.08;47.29;101662.00;4940420;28;45496;-51
2022/06/10 02:04:12;;;;;;;;;6.25;6.00;;;;;19.05;46.95;101653.25;4942042;28;46176;-51
2022/06/10 02:06:51;;;;;;;;;6.00;6.00;;;;;19.02;47.38;101651.56;4941746;28;45454;-50
2022/06/10 02:09:29;;;;;;;;;6.75;5.50;;;;;18.97;47.40;101657.03;4941857;28;45509;-48
2022/06/10 02:12:03;;;;;;;;;7.50;5.75;;;;;18.94;47.49;101651.81;4941952;28;45305;-51
2022/06/10 02:14:37;;;;;;;;;5.00;5.00;;;;;18.93;47.29;101659.84;4940296;28;49057;-49
2022/06/10 02:17:06;;;;;;;;;5.75;5.75;;;;;18.89;47.62;101655.53;4929759;28;45269;-52
2022/06/10 02:19:37;;;;;;;;;7.75;6.75;;;;;18.86;47.74;101663.63;4941633;28;45284;-49
2022/06/10 02:22:20;;;;;;;;;4.50;4.50;;;;;18.84;47.54;101658.34;4940376;28;45253;-49
2022/06/10 02:24:52;;;;;;;;;6.00;5.00;;;;;18.80;47.79;101652.28;4941532;28;46395;-49
2022/06/10 02:27:24;;;;;;;;;8.50;6.00;;;;;18.79;47.60;101655.84;4941775;28;45403;-51
2022/06/10 02:29:55;;;;;;;;;5.75;5.25;;;;;18.76;47.67;101655.09;4941590;28;45240;-50
2022/06/10 02:32:21;;;;;;;;;7.00;7.00;;;;;18.72;47.75;101643.66;4941311;28;45478;-49
2022/06/10 02:34:47;;;;;;;;;7.50;7.50;;;;;18.73;47.67;101649.84;4941500;28;45331;-50
2022/06/10 02:37:19;;;;;;;;;5.25;4.25;;;;;18.70;48.22;101644.66;4941417;28;45160;-50
2022/06/10 02:40:12;;;;;;;;;5.25;5.25;;;;;18.69;48.02;101654.41;4940406;28;45450;-51
2022/06/10 02:42:57;;;;;;;;;6.00;5.00;;;;;18.61;48.18;101648.47;4939975;28;45988;-52
2022/06/10 02:45:25;;;;;;;;;5.75;5.75;;;;;18.61;47.91;101654.66;4941312;28;45498;-49
2022/06/10 02:47:58;;;;;;;;;11.00;6.00;;;;;18.58;48.11;101656.56;4940169;28;45417;-49
2022/06/10 02:50:24;;;;;;;;;4.00;4.00;;;;;18.55;48.28;101659.34;4941215;28;45618;-49
2022/06/10 02:52:50;;;;;;;;;6.00;6.00;;;;;18.54;48.25;101666.47;4940040;28;45404;-49
2022/06/10 02:55:23;;;;;;;;;9.50;6.00;;;;;18.52;48.25;101657.66;4941117;28;46141;-48
2022/06/10 03:01:12;;;;;;;;;7.75;5.75;;;;;18.46;48.53;101665.81;4941180;28;45243;-51
2022/06/10 03:04:03;;;;;;;;;6.50;6.50;;;;;18.42;48.22;101673.03;4941380;28;46301;-51
2022/06/10 03:06:51;;;;;;;;;7.50;6.25;;;;;18.39;48.55;101675.81;4943154;28;47214;-49
2022/06/10 03:09:26;;;;;;;;;6.00;6.00;;;;;18.38;48.66;101676.72;4944408;28;45454;-52
2022/06/10 03:12:13;;;;;;;;;7.50;6.00;;;;;18.35;48.66;101671.47;4944714;28;45334;-50
2022/06/10 03:14:41;;;;;;;;;4.75;4.75;;;;;18.32;48.61;101666.28;4944456;28;45339;-49
2022/06/10 03:17:09;;;;;;;;;6.00;6.00;;;;;18.30;48.41;101668.09;4944261;28;46486;-49
2022/06/10 03:20:11;;;;;;;;;5.00;5.00;;;;;18.30;48.97;101668.09;4944175;28;45333;-50
2022/06/10 03:23:09;;;;;;;;;6.75;4.25;;;;;18.29;48.84;101677.03;4944361;28;45289;-49
2022/06/10 03:25:45;;;;;;;;;5.50;5.50;;;;;18.26;48.96;101683.28;4944384;28;45307;-47
2022/06/10 03:28:41;;;;;;;;;10.00;7.00;;;;;18.24;48.87;101685.16;4942867;28;48822;-51
2022/06/10 03:31:16;;;;;;;;;7.25;6.00;;;;;18.22;49.03;101680.78;4944148;28;45295;-49
2022/06/10 03:33:59;;;;;;;;;7.00;6.00;;;;;18.20;49.13;101683.50;4944301;28;45253;-50
2022/06/10 03:36:27;;;;;;;;;7.25;6.75;;;;;18.17;49.07;101678.25;4944344;28;45228;-50
2022/06/10 03:38:54;;;;;;;;;5.50;5.50;;;;;18.18;49.13;101686.19;4943779;28;46153;-50
2022/06/10 03:41:28;;;;;;;;;8.50;4.75;;;;;18.18;49.19;101694.16;4942609;28;45683;-50
2022/06/10 03:43:56;;;;;;;;;7.00;7.00;;;;;18.16;49.16;101690.72;4944092;28;45335;-49
2022/06/10 03:46:24;;;;;;;;;6.75;6.00;;;;;18.14;49.31;101679.22;4944019;28;45449;-52
2022/06/10 03:48:51;;;;;;;;;6.50;6.50;;;;;18.12;49.23;101686.38;4943749;28;45395;-50
2022/06/10 03:51:19;;;;;;;;;8.00;6.50;;;;;18.11;49.54;101686.44;4943898;28;45282;-51
2022/06/10 03:53:45;;;;;;;;;7.25;7.25;;;;;18.09;49.52;101686.50;4942510;28;45450;-50
2022/06/10 03:56:12;;;;;;;;;6.25;4.75;;;;;18.01;49.25;101683.19;4943981;28;45552;-49
2022/06/10 03:58:40;;;;;;;;;7.75;5.25;;;;;18.05;49.40;101684.84;4943727;28;45211;-49
2022/06/10 04:01:06;;;;;;;;;7.50;7.00;;;;;18.04;49.70;101688.41;4943622;28;45402;-51
2022/06/10 04:03:32;;;;;;;;;6.25;6.25;;;;;17.99;49.37;101690.34;4943766;28;45319;-50
2022/06/10 04:05:57;;;;;;;;;6.75;6.00;;;;;17.99;49.80;101677.06;4943742;28;45347;-48
2022/06/10 04:08:22;;;;;;;;;11.25;9.00;;;;;18.00;49.53;101700.09;4943388;28;45372;-51
2022/06/10 04:10:48;;;;;;;;;7.25;6.50;;;;;17.98;49.71;101699.25;4943708;28;45357;-49
2022/06/10 04:13:17;;;;;;;;;10.25;7.75;;;;;17.97;49.57;101701.00;4943863;28;45303;-52
2022/06/10 04:15:43;;;;;;;;;11.00;8.75;;;;;17.95;49.95;101700.22;4942798;28;45416;-49
2022/06/10 04:18:09;;;;;;;;;5.50;5.50;;;;;17.93;49.67;101707.31;4943316;28;45356;-50
2022/06/10 04:20:36;;;;;;;;;8.75;6.50;;;;;17.92;49.64;101707.38;4943437;28;45378;-51
2022/06/10 04:23:03;;;;;;;;;9.50;6.50;;;;;17.90;49.79;101707.41;4943465;28;45187;-49
2022/06/10 04:25:30;;;;;;;;;9.50;8.00;;;;;17.88;49.87;101709.25;4943452;28;45532;-50
2022/06/10 04:27:55;;;;;;;;;7.50;7.50;;;;;17.86;49.99;101703.97;4941955;28;47283;-50
2022/06/10 04:30:33;;;;;;;;;6.75;5.75;;;;;17.85;49.80;101712.88;4943282;28;45416;-49
2022/06/10 04:32:59;;;;;;;;;6.50;6.00;;;;;17.80;49.94;101704.16;4942005;28;45256;-47
2022/06/10 04:35:26;;;;;;;;;9.00;7.00;;;;;17.82;50.15;101709.41;4942084;28;45281;-48
2022/06/10 04:37:52;;;;;;;;;9.75;7.00;;;;;17.81;49.92;101711.22;4942865;28;45931;-48
2022/06/10 04:40:22;;;;;;;;;6.00;6.00;;;;;17.79;49.92;101721.00;4943046;28;45453;-47
2022/06/10 04:42:49;;;;;;;;;7.25;6.25;;;;;17.78;50.08;101719.28;4943079;28;45270;-49
2022/06/10 04:45:17;;;;;;;;;8.00;8.00;;;;;17.76;49.90;101714.91;4943197;28;45436;-51
2022/06/10 04:47:43;;;;;;;;;7.00;6.50;;;;;17.75;50.45;101714.06;4942763;28;46630;-50
2022/06/10 04:50:11;;;;;;;;;9.50;6.00;;;;;17.73;50.18;101718.53;4942903;28;45438;-49
2022/06/10 04:52:37;;;;;;;;;8.50;7.25;;;;;17.68;50.01;101713.38;4943174;28;45380;-49
2022/06/10 04:55:04;;;;;;;;;7.00;7.00;;;;;17.69;50.15;101717.75;4942860;28;45236;-50
2022/06/10 04:57:29;;;;;;;;;7.00;7.00;;;;;17.68;50.29;101716.03;4943067;28;45342;-51
2022/06/10 04:59:55;;;;;;;;;5.25;5.25;;;;;17.65;50.05;101716.09;4942796;28;45160;-50
2022/06/10 05:02:21;;;;;;;;;7.00;5.75;;;;;17.64;50.07;101717.00;4943094;28;45254;-48
2022/06/10 05:04:46;;;;;;;;;4.00;2.25;;;;;17.63;50.29;101712.59;4942818;28;45233;-47
2022/06/10 05:07:12;;;;;;;;;6.75;6.50;;;;;17.62;50.09;101710.00;4942608;28;45995;-50
2022/06/10 05:09:37;;;;;;;;;7.00;5.75;;;;;17.63;50.37;101711.75;4942847;28;45440;-48
2022/06/10 05:12:03;;;;;;;;;8.50;7.25;;;;;17.63;50.34;101711.75;4942997;28;45255;-51
2022/06/10 05:14:28;;;;;;;;;10.25;8.50;;;;;17.62;50.33;101710.00;4942768;28;45452;-47
2022/06/10 05:16:56;;;;;;;;;10.25;8.00;;;;;17.62;50.30;101712.66;4942436;28;53637;-47
2022/06/10 05:19:21;;;;;;;;;7.00;5.25;;;;;17.62;50.42;101710.00;4942587;28;45327;-48
2022/06/10 05:21:46;;;;;;;;;9.50;7.75;;;;;17.59;50.50;101696.81;4942541;28;45216;-47
2022/06/10 05:24:12;;;;;;;;;8.00;7.00;;;;;17.61;50.57;101718.88;4942599;28;45456;-51
2022/06/10 05:26:37;;;;;;;;;8.50;8.50;;;;;17.54;50.33;101699.59;4942592;28;45912;-51
2022/06/10 05:29:03;;;;;;;;;9.50;7.25;;;;;17.63;50.38;101714.41;4942472;28;45189;-48
2022/06/10 05:31:28;;;;;;;;;8.75;8.75;;;;;17.63;50.42;101714.41;4942229;28;45589;-50
2022/06/10 05:36:38;;;;;;;;;8.00;7.75;;;;;17.64;50.28;101718.81;4942584;28;45337;-48
2022/06/10 05:39:04;;;;;;;;;7.25;6.75;;;;;17.65;50.39;101718.75;4941994;28;45299;-49
2022/06/10 05:44:14;;;;;;;;;10.75;7.25;;;;;17.69;50.78;101722.19;4942172;28;45184;-52
2022/06/10 05:46:40;;;;;;;;;6.25;4.00;;;;;17.70;50.69;101730.13;4942035;28;45603;-49
2022/06/10 05:49:05;;;;;;;;;7.25;7.00;;;;;17.72;50.64;101730.06;4940733;28;45224;-51
2022/06/10 05:51:31;;;;;;;;;6.75;6.75;;;;;17.73;50.70;101731.81;4942240;28;45330;-49
2022/06/10 05:53:56;;;;;;;;;9.00;6.25;;;;;17.75;50.89;101731.78;4941904;28;45204;-49
2022/06/10 05:56:21;;;;;;;;;9.50;8.00;;;;;17.77;50.86;101725.50;4940859;28;47250;-50
2022/06/10 05:58:47;;;;;;;;;6.00;5.00;;;;;17.78;50.77;101734.34;4942043;28;45485;-52
2022/06/10 06:01:12;;;;;;;;;6.50;6.50;;;;;17.83;50.87;101743.06;4942165;28;45279;-50
2022/06/10 06:03:37;;;;;;;;;6.25;5.75;;;;;17.83;50.90;101738.59;4940655;28;45392;-49
2022/06/10 06:06:04;;;;;;;;;4.75;4.25;;;;;17.87;50.69;101745.59;4942003;28;45845;-49
2022/06/10 06:08:29;;;;;;;;;7.75;7.75;;;;;17.89;50.78;101752.66;4941633;28;45509;-50
2022/06/10 06:10:54;;;;;;;;;6.25;5.75;;;;;17.92;50.39;101758.75;4940779;28;45482;-49
2022/06/10 06:13:20;;;;;;;;;4.00;4.00;;;;;17.92;50.81;101752.56;4941744;28;45255;-49
2022/06/10 06:15:45;;;;;;;;;7.00;6.50;;;;;17.96;50.84;101757.78;4941689;28;46961;-50
2022/06/10 06:18:11;;;;;;;;;6.75;5.50;;;;;17.99;51.06;101755.03;4941675;28;45401;-50
2022/06/10 06:20:36;;;;;;;;;5.25;4.75;;;;;18.03;50.90;101764.66;4941943;28;45343;-49
2022/06/10 06:23:02;;;;;;;;;10.00;8.00;;;;;18.06;51.03;101757.50;4941385;28;45320;-51
2022/06/10 06:25:30;;;;;;;;;6.50;4.50;;;;;18.08;51.10;101767.19;4940443;28;47071;-53
2022/06/10 06:27:56;;;;;;;;;8.00;5.50;;;;;18.11;51.14;101759.13;4941860;28;45259;-53
2022/06/10 06:30:30;;;;;;;;;6.25;6.25;;;;;18.13;51.12;101761.75;4941737;28;45185;-49
2022/06/10 06:32:56;;;;;;;;;7.00;6.75;;;;;18.18;51.23;101760.69;4941485;28;45407;-51
2022/06/10 06:35:23;;;;;;;;;8.25;6.25;;;;;18.20;51.31;101752.66;4940261;28;47445;-51
2022/06/10 06:37:48;;;;;;;;;11.75;8.00;;;;;18.17;51.04;101750.09;4941158;28;45274;-53
2022/06/10 06:40:14;;;;;;;;;6.00;5.00;;;;;18.27;51.26;101767.50;4946941;28;45389;-50
2022/06/10 06:42:40;;;;;;;;;5.25;5.25;;;;;18.28;51.07;101763.06;4947718;28;45600;-52
2022/06/10 06:45:07;;;;;;;;;4.25;4.00;;;;;18.28;51.28;101763.94;4948166;28;45378;-51
2022/06/10 06:47:32;;;;;;;;;8.25;6.25;;;;;18.34;51.78;101761.09;4947696;28;45449;-50
2022/06/10 06:49:58;;;;;;;;;4.75;4.75;;;;;18.40;51.41;101777.78;4946466;28;45307;-50
2022/06/10 06:52:23;;;;;;;;;5.00;4.00;;;;;18.42;51.21;101768.84;4947451;28;45188;-49
2022/06/10 06:54:49;;;;;;;;;7.00;5.00;;;;;18.45;51.58;101766.09;4947832;28;46962;-49
2022/06/10 06:57:14;;;;;;;;;5.75;4.25;;;;;18.50;51.42;101771.25;4947888;28;45217;-53
2022/06/10 06:59:40;;;;;;;;;6.50;5.50;;;;;18.55;51.23;101765.78;4947946;28;45248;-51
2022/06/10 07:02:05;;;;;;;;;10.50;9.00;;;;;18.56;51.36;101764.88;4946231;28;45513;-49
2022/06/10 07:04:30;;;;;;;;;6.00;4.25;;;;;18.60;51.30;101761.19;4947739;28;45179;-51
2022/06/10 07:06:56;;;;;;;;;5.00;5.00;;;;;18.62;51.07;101765.53;4946084;28;47157;-50
2022/06/10 07:09:21;;;;;;;;;8.50;6.75;;;;;18.65;51.06;101756.59;4947913;28;45232;-52
2022/06/10 07:11:47;;;;;;;;;5.75;4.25;;;;;18.67;50.95;101760.94;4947538;28;45163;-49
2022/06/10 07:14:13;;;;;;;;;5.75;5.50;;;;;18.69;51.22;101766.22;4947611;28;46346;-49
2022/06/10 07:16:38;;;;;;;;;5.00;4.25;;;;;18.73;51.62;101773.19;4946135;28;45347;-52
2022/06/10 07:19:04;;;;;;;;;5.00;4.00;;;;;18.78;51.59;101765.03;4947498;28;45263;-50
2022/06/10 07:21:30;;;;;;;;;5.25;3.75;;;;;18.81;51.01;101765.81;4947241;28;45328;-49
2022/06/10 07:23:56;;;;;;;;;7.50;5.50;;;;;18.83;51.10;101766.66;4946850;28;45419;-52
2022/06/10 07:26:21;;;;;;;;;5.25;5.25;;;;;18.89;51.28;101759.38;4947328;28;45296;-52
2022/06/10 07:28:46;;;;;;;;;8.25;6.25;;;;;18.90;51.24;101762.03;4947281;28;45328;-48
2022/06/10 07:31:12;;;;;;;;;7.00;5.25;;;;;18.94;51.37;101754.81;4947039;28;45477;-49
2022/06/10 07:33:37;;;;;;;;;7.00;6.50;;;;;18.97;51.06;101755.56;4947222;28;45982;-49
2022/06/10 07:36:05;;;;;;;;;4.00;2.25;;;;;19.02;51.03;101759.88;4947248;28;45252;-53
2022/06/10 07:38:30;;;;;;;;;4.50;4.00;;;;;19.06;51.32;101759.72;4947191;28;45257;-53
2022/06/10 07:43:41;;;;;;;;;3.75;3.75;;;;;19.14;51.01;101771.00;4947359;28;45303;-53
2022/06/10 07:46:09;;;;;;;;;4.00;4.00;;;;;19.19;51.23;101781.47;4945814;28;45470;-51
2022/06/10 07:48:35;;;;;;;;;2.75;2.75;;;;;19.23;51.16;101772.50;4947055;28;45428;-51
2022/06/10 07:51:00;;;;;;;;;5.00;4.25;;;;;19.27;51.17;101766.13;4943973;28;45454;-49
2022/06/10 07:53:26;;;;;;;;;4.50;1.75;;;;;19.31;50.86;101772.22;4943487;28;46174;-49
2022/06/10 07:55:51;;;;;;;;;4.00;1.00;;;;;19.37;50.97;101773.78;4942771;28;45390;-49
2022/06/10 07:58:18;;;;;;;;;2.50;2.50;;;;;19.45;50.86;101775.25;4943957;28;45292;-48
2022/06/10 08:00:44;;;;;;;;;3.00;3.00;;;;;19.52;50.98;101772.38;4943640;28;45312;-49
2022/06/10 08:03:10;;;;;;;;;4.00;3.00;;;;;19.58;50.67;101769.50;4943446;28;46280;-51
2022/06/10 08:05:36;;;;;;;;;5.25;3.50;;;;;19.67;51.08;101773.63;4943806;28;45243;-50
2022/06/10 08:08:02;;;;;;;;;4.25;4.00;;;;;19.73;50.58;101768.94;4943474;28;45251;-49
2022/06/10 08:10:31;;;;;;;;;3.00;3.00;;;;;19.76;50.99;101773.28;4943627;28;45550;-49
2022/06/10 08:12:57;;;;;;;;;4.75;4.25;;;;;19.85;50.48;101774.78;4942050;28;46056;-49
2022/06/10 08:15:23;;;;;;;;;3.00;1.75;;;;;19.91;50.61;101777.22;4943781;28;45502;-52
2022/06/10 08:17:49;;;;;;;;;3.00;2.25;;;;;19.98;51.06;101768.91;4943557;28;45288;-50
2022/06/10 08:22:32;;;;;;;;;2.00;2.00;;;;;20.05;50.53;101766.03;4943404;28;45465;-51
2022/06/10 08:23:11;;;;;;;;;2.00;2.00;;;;;20.05;50.49;101764.25;4943114;28;45905;-50
2022/06/10 08:25:37;;;;;;;;;4.00;4.00;;;;;20.07;50.62;101762.38;4942024;28;45284;-51
2022/06/10 08:28:03;;;;;;;;;4.00;2.25;;;;;20.18;50.24;101766.47;4943615;28;45387;-49
2022/06/10 08:30:28;;;;;;;;;2.25;2.25;;;;;20.24;50.24;101768.88;4943382;28;45464;-49
2022/06/10 08:32:53;;;;;;;;;4.00;0.00;;;;;20.32;50.28;101766.78;4942965;28;45493;-50
2022/06/10 08:35:19;;;;;;;;;3.00;3.00;;;;;20.32;50.05;101769.44;4942079;28;45393;-49
2022/06/10 08:37:44;;;;;;;;;3.50;2.50;;;;;20.34;49.99;101759.59;4943025;28;45330;-51
2022/06/10 08:40:22;;;;;;;;;3.50;2.25;;;;;20.37;50.24;101759.44;4943298;28;45373;-50
2022/06/10 08:42:50;;;;;;;;;1.75;1.75;;;;;20.42;49.89;101762.81;4941614;28;47637;-50
2022/06/10 08:45:26;;;;;;;;;2.00;1.25;;;;;20.48;50.14;101759.03;4943308;28;45248;-51
2022/06/10 08:48:27;;;;;;;;;3.00;3.00;;;;;20.53;49.53;101759.72;4943219;28;45480;-50
2022/06/10 08:51:04;;;;;;;;;2.25;2.00;;;;;20.56;49.75;101762.25;4942603;28;45311;-48
2022/06/10 08:53:55;;;;;;;;;2.00;1.00;;;;;20.60;49.31;101757.66;4942533;28;45426;-50
2022/06/10 08:56:30;;;;;;;;;3.00;3.00;;;;;20.59;49.67;101746.13;4923989;28;45657;-51
2022/06/10 08:58:58;;;;;;;;;5.00;4.00;;;;;20.66;49.85;101751.22;4941629;28;45455;-51
2022/06/10 09:01:26;;;;;;;;;6.00;4.00;;;;;20.69;49.57;101757.31;4942377;28;45554;-50
2022/06/10 09:04:04;;;;;;;;;2.50;2.00;;;;;20.74;49.97;101754.47;4942668;28;45357;-49
2022/06/10 09:06:42;;;;;;;;;3.75;3.00;;;;;20.76;49.60;101752.63;4941401;28;45345;-52
2022/06/10 09:09:13;;;;;;;;;3.00;3.00;;;;;20.76;49.52;101757.94;4943059;28;45277;-52
2022/06/10 09:11:59;;;;;;;;;4.00;2.50;;;;;20.82;49.34;101755.03;4942642;28;45562;-50
2022/06/10 09:14:27;;;;;;;;;3.75;2.00;;;;;20.91;49.66;101756.44;4942634;28;45590;-55
2022/06/10 09:17:11;;;;;;;;;1.50;1.50;;;;;20.97;49.15;101756.19;4925437;28;45302;-52
2022/06/10 09:20:02;;;;;;;;;3.00;3.00;;;;;21.06;49.70;101754.94;4942553;28;45331;-52
2022/06/10 09:22:46;;;;;;;;;2.00;2.00;;;;;21.12;49.24;101746.66;4940908;28;45444;-53
2022/06/10 09:25:15;;;;;;;;;3.50;1.50;;;;;21.18;49.24;101753.53;4942429;28;46196;-47
2022/06/10 09:27:44;;;;;;;;;4.75;3.00;;;;;21.24;49.54;101755.94;4940911;28;45347;-47
2022/06/10 09:30:13;;;;;;;;;2.00;1.50;;;;;21.32;49.26;101759.19;4942520;28;45256;-51
2022/06/10 09:32:59;;;;;;;;;4.00;3.00;;;;;21.38;49.00;101753.56;4941950;28;45392;-51
2022/06/10 09:35:51;;;;;;;;;1.25;1.25;;;;;21.38;49.05;101758.91;4941017;28;45483;-49
2022/06/10 09:38:35;;;;;;;;;2.25;2.25;;;;;21.53;49.34;101751.13;4942103;28;45184;-47
2022/06/10 09:41:13;;;;;;;;;1.00;1.00;;;;;21.59;49.16;101759.78;4942125;28;45277;-51
2022/06/10 09:44:06;;;;;;;;;2.75;2.00;;;;;21.69;48.47;101748.69;4942261;28;45384;-49
2022/06/10 09:46:58;;;;;;;;;12.75;8.75;;;;;21.79;48.66;101759.84;4941984;28;46304;-50
2022/06/10 09:49:41;;;;;;;;;2.75;2.00;;;;;21.85;48.10;101754.22;4940709;28;45314;-51
2022/06/10 09:52:25;;;;;;;;;3.50;3.50;;;;;21.91;48.37;101753.91;4941910;28;45331;-49
2022/06/10 09:55:14;;;;;;;;;17.00;16.00;;;;;21.96;48.62;101746.56;4941959;28;45364;-49
2022/06/10 09:58:27;;;;;;;;;3.25;2.00;;;;;22.07;48.33;101752.28;4942001;28;45264;-52
2022/06/10 10:01:37;;;;;;;;;3.25;1.75;;;;;22.13;48.16;101740.41;4941773;28;45470;-50
2022/06/10 10:04:39;;;;;;;;;2.75;1.50;;;;;22.23;47.84;101759.56;4901643;29;45408;-51
2022/06/10 10:07:21;;;;;;;;;1.50;1.50;;;;;22.35;48.21;101758.09;4901352;29;45294;-50
2022/06/10 10:10:18;;;;;;;;;2.00;2.00;;;;;22.40;48.01;101754.31;4936053;28;46132;-51
2022/06/10 10:12:53;;;;;;;;;1.25;1.25;;;;;22.55;47.82;101755.38;4941907;28;45252;-49
2022/06/10 10:15:31;;;;;;;;;4.50;4.50;;;;;22.68;47.59;101754.78;4941090;28;45312;-51
2022/06/10 10:18:27;;;;;;;;;2.75;2.00;;;;;22.79;47.69;101749.78;4940242;28;45456;-49
2022/06/10 10:21:04;;;;;;;;;0.25;0.25;;;;;22.91;47.74;101747.41;4941581;28;45328;-48
2022/06/10 10:23:47;;;;;;;;;3.00;3.00;;;;;23.00;47.68;101745.13;4941452;28;45376;-49
2022/06/10 10:26:20;;;;;;;;;3.25;2.00;;;;;23.08;47.66;101751.91;4941630;28;45418;-51
2022/06/10 10:28:48;;;;;;;;;2.50;1.00;;;;;23.13;47.49;101749.84;4941654;28;45241;-50
2022/06/10 10:31:22;;;;;;;;;1.75;1.75;;;;;23.19;47.55;101746.88;4941082;28;47205;-52
2022/06/10 10:33:48;;;;;;;;;2.00;2.00;;;;;23.28;47.71;101753.59;4941288;28;45381;-50
2022/06/10 10:36:28;;;;;;;;;3.75;2.75;;;;;23.48;47.65;101745.38;4941443;28;45370;-50
2022/06/10 10:38:53;;;;;;;;;1.00;1.00;;;;;23.59;47.36;101744.81;4941137;28;45549;-52
2022/06/10 10:41:24;;;;;;;;;3.00;1.50;;;;;23.75;47.45;101743.97;4941172;28;46265;-52
2022/06/10 10:43:53;;;;;;;;;2.00;2.00;;;;;23.86;47.60;101747.81;4941378;28;45418;-52
2022/06/10 10:46:36;;;;;;;;;1.75;1.75;;;;;24.03;47.38;101743.38;4941533;28;45257;-48
2022/06/10 10:49:15;;;;;;;;;2.00;2.00;;;;;24.10;47.26;101730.47;4941371;28;45349;-50
2022/06/10 10:51:41;;;;;;;;;2.75;2.75;;;;;24.24;46.99;101753.84;4941025;28;45270;-52
2022/06/10 10:54:22;;;;;;;;;11.75;8.50;;;;;24.32;46.99;101741.72;4941086;28;45318;-52
2022/06/10 10:56:49;;;;;;;;;45.25;35.75;;;;;24.49;46.94;101739.91;4941102;28;45302;-49
2022/06/10 10:59:40;;;;;;;;;10.00;8.75;;;;;24.60;46.64;101737.47;4941367;28;45521;-53
2022/06/10 11:02:30;;;;;;;;;9.00;5.25;;;;;24.78;46.61;101748.13;4935921;28;45512;-48
2022/06/10 11:05:15;;;;;;;;;1.00;1.00;;;;;25.03;46.32;101742.19;4940986;28;45247;-53
2022/06/10 11:07:43;;;;;;;;;6.75;6.75;;;;;25.42;46.19;101731.78;4940762;28;45313;-52
2022/06/10 11:10:21;;;;;;;;;2.00;2.00;;;;;25.70;46.86;101739.03;4940889;28;45591;-52
2022/06/10 11:12:47;;;;;;;;;76.50;69.50;;;;;25.93;46.76;101740.25;4940874;28;46330;-51
2022/06/10 11:15:22;;;;;;;;;1.00;1.00;;;;;26.18;46.08;101749.50;4940901;28;45326;-49
2022/06/10 11:17:49;;;;;;;;;2.00;2.00;;;;;26.46;46.21;101736.06;4941026;28;45321;-52
2022/06/10 11:20:14;;;;;;;;;1.75;1.50;;;;;26.64;46.12;101737.53;4940802;28;45259;-51
2022/06/10 11:22:40;;;;;;;;;2.75;1.00;;;;;26.80;46.32;101752.72;4940533;28;45236;-52
2022/06/10 11:25:09;;;;;;;;;1.25;1.25;;;;;26.97;45.80;101744.34;4942060;28;45307;-50
2022/06/10 11:27:39;;;;;;;;;1.00;1.00;;;;;27.15;45.33;101746.75;4944132;28;45323;-51
2022/06/10 11:30:10;;;;;;;;;2.00;2.00;;;;;27.24;45.39;101748.81;4944296;28;45355;-51
2022/06/10 11:32:47;;;;;;;;;3.00;2.00;;;;;27.23;45.21;101742.56;4943861;28;46213;-51
2022/06/10 11:35:22;;;;;;;;;1.25;1.25;;;;;27.22;45.26;101740.81;4943966;28;45386;-50
2022/06/10 11:37:52;;;;;;;;;2.75;2.50;;;;;27.28;44.69;101730.56;4943845;28;45368;-51
2022/06/10 11:40:46;;;;;;;;;5.25;3.50;;;;;27.37;44.70;101735.31;4943983;28;45404;-49
2022/06/10 11:43:29;;;;;;;;;2.00;2.00;;;;;27.45;45.23;101730.28;4942824;28;45358;-52
2022/06/10 11:46:05;;;;;;;;;2.00;2.00;;;;;27.55;44.86;101742.16;4943772;28;45171;-50
2022/06/10 11:48:43;;;;;;;;;1.50;1.50;;;;;27.74;44.78;101735.44;4943729;28;45398;-51
2022/06/10 11:51:27;;;;;;;;;2.00;2.00;;;;;27.82;44.20;101733.03;4931776;28;45450;-52
2022/06/10 11:54:04;;;;;;;;;2.75;2.75;;;;;27.86;43.90;101736.41;4943758;28;46536;-51
2022/06/10 11:59:54;;;;;;;;;4.50;2.75;;;;;27.84;43.55;101733.81;4943883;28;45306;-52
2022/06/10 12:02:25;;;;;;;;;2.75;2.00;;;;;27.76;43.27;101724.53;4943538;28;45323;-49
2022/06/10 12:05:27;;;;;;;;;3.00;2.00;;;;;27.71;43.91;101728.44;4943860;28;45300;-51